42.1°F
Current conditions from King Hill
Updated every 5 minutes
 
  Wednesday April 23, 2014

Station Historical Data
Daily Summary for May 19, 2012 Units:  Metric    English   Both
« Previous Day
Next Day »
Daily Weekly Monthly Yearly Custom
  High: Low: Average:
Temperature: 27.2 °C 6.7 °C 16.9 °C
Dew Point: 13 °C 3.8 °C 8.2 °C
Humidity: 84% 32% 60%
Wind Speed: 8km/h 0km/h 2.9km/h
Wind Gust: 14.5km/h - -
Wind- - WSW
Pressure: 1021.6 hPa 1018.2 hPa -
Precipitation: 0 mm    
Historical Graphs
 
 
Tabular Data for May 19, 2012
Time Temperature Dew Point Pressure Wind Wind Speed Wind Gust Humidity Daily Rainfall
00:00 9.7 °C 5.3 °C 1019.9 hPa Calm     74% 0 mm
00:05 9.7 °C 5.8 °C 1019.9 hPa Calm     77% 0 mm
00:10 9.6 °C 5.6 °C 1019.9 hPa Calm     76% 0 mm
00:15 9.6 °C 5.6 °C 1019.9 hPa Calm     76% 0 mm
00:20 9.5 °C 5.5 °C 1020.2 hPa Calm     76% 0 mm
00:25 9.4 °C 5.6 °C 1020.2 hPa Calm     77% 0 mm
00:30 9.3 °C 5.7 °C 1020.2 hPa Calm     78% 0 mm
00:35 9.1 °C 5.5 °C 1020.2 hPa Calm     78% 0 mm
00:40 8.8 °C 5.2 °C 1020.2 hPa Calm     78% 0 mm
00:45 8.8 °C 5.3 °C 1020.2 hPa Calm     79% 0 mm
00:50 8.7 °C 5.2 °C 1020.2 hPa Calm     79% 0 mm
00:55 8.6 °C 5 °C 1020.2 hPa Calm     78% 0 mm
01:00 8.6 °C 4.8 °C 1020.2 hPa Calm     77% 0 mm
01:05 8.6 °C 4.8 °C 1020.2 hPa Calm     77% 0 mm
01:10 8.6 °C 5 °C 1020.2 hPa Calm     78% 0 mm
01:15 8.5 °C 4.7 °C 1020.2 hPa Calm     77% 0 mm
01:20 8.4 °C 4.7 °C 1020.2 hPa Calm     77% 0 mm
01:25 8.4 °C 4.6 °C 1020.2 hPa Calm     77% 0 mm
01:30 8.3 °C 4.3 °C 1020.2 hPa Calm     76% 0 mm
01:35 8.3 °C 4.3 °C 1020.2 hPa Calm     76% 0 mm
01:40 8.4 °C 4.7 °C 1020.2 hPa Calm     77% 0 mm
01:45 8.4 °C 4.6 °C 1020.2 hPa Calm     77% 0 mm
01:55 8.4 °C 4.4 °C 1020.2 hPa Calm     76% 0 mm
02:00 8.4 °C 4.4 °C 1020.2 hPa Calm     76% 0 mm
02:05 8.4 °C 4.4 °C 1020.2 hPa Calm     76% 0 mm
02:10 8.4 °C 4.4 °C 1019.9 hPa Calm     76% 0 mm
02:14 8.3 °C 4.6 °C 1020.2 hPa Calm     77% 0 mm
02:20 8.3 °C 4.3 °C 1019.9 hPa Calm     76% 0 mm
02:25 8.2 °C 4.4 °C 1020.2 hPa Calm     77% 0 mm
02:30 8.1 °C 4.5 °C 1020.2 hPa Calm     78% 0 mm
02:35 8.1 °C 4.9 °C 1019.9 hPa Calm     80% 0 mm
02:40 8.1 °C 4.6 °C 1020.2 hPa Calm     79% 0 mm
02:50 8.1 °C 4.7 °C 1020.2 hPa Calm     79% 0 mm
02:55 8.1 °C 4.7 °C 1020.2 hPa Calm     79% 0 mm
03:00 8.3 °C 4.7 °C 1020.2 hPa Calm     78% 0 mm
03:05 8.4 °C 4.8 °C 1019.9 hPa Calm     78% 0 mm
03:10 8.2 °C 4.6 °C 1019.9 hPa Calm     78% 0 mm
03:15 8.1 °C 4.7 °C 1019.9 hPa Calm     79% 0 mm
03:20 7.9 °C 4.5 °C 1019.9 hPa Calm     79% 0 mm
03:25 7.9 °C 4.3 °C 1020.2 hPa Calm     78% 0 mm
03:30 7.8 °C 4.2 °C 1020.2 hPa Calm     78% 0 mm
03:35 7.7 °C 4.1 °C 1020.2 hPa Calm     78% 0 mm
03:40 7.7 °C 4.3 °C 1020.2 hPa Calm     79% 0 mm
03:45 7.7 °C 4.3 °C 1020.2 hPa Calm     79% 0 mm
03:55 7.6 °C 4.3 °C 1020.2 hPa Calm     80% 0 mm
04:00 7.5 °C 4.3 °C 1020.2 hPa Calm     80% 0 mm
04:05 7.4 °C 4.2 °C 1020.5 hPa Calm   1.6 km/h 80% 0 mm
04:10 7.4 °C 4.2 °C 1020.5 hPa Calm   1.6 km/h 80% 0 mm
04:15 7.2 °C 4 °C 1020.5 hPa Calm     80% 0 mm
04:20 7.1 °C 4.1 °C 1020.5 hPa Calm     81% 0 mm
04:25 6.9 °C 3.8 °C 1020.5 hPa Calm     81% 0 mm
04:30 6.7 °C 3.9 °C 1020.5 hPa Calm     82% 0 mm
04:35 6.8 °C 4.1 °C 1020.5 hPa Calm     83% 0 mm
04:40 6.7 °C 4.2 °C 1020.5 hPa Calm     84% 0 mm
04:45 6.7 °C 4.2 °C 1020.5 hPa Calm     84% 0 mm
04:50 6.8 °C 4.3 °C 1020.5 hPa Calm     84% 0 mm
05:00 6.7 °C 4.2 °C 1020.5 hPa Calm     84% 0 mm
05:10 6.7 °C 4.2 °C 1020.5 hPa Calm     84% 0 mm
05:15 6.8 °C 4.3 °C 1020.5 hPa Calm     84% 0 mm
05:20 6.8 °C 4.3 °C 1020.2 hPa Calm     84% 0 mm
05:25 7.1 °C 4.4 °C 1020.2 hPa Calm     83% 0 mm
05:35 7 °C 4.3 °C 1020.5 hPa Calm     83% 0 mm
05:40 6.9 °C 4.3 °C 1020.5 hPa Calm     83% 0 mm
05:45 6.9 °C 4.4 °C 1020.5 hPa Calm     84% 0 mm
05:50 7.1 °C 4.4 °C 1020.5 hPa Calm     83% 0 mm
06:00 7.2 °C 4.6 °C 1020.5 hPa Calm     83% 0 mm
06:05 7.3 °C 4.8 °C 1020.5 hPa Calm     84% 0 mm
06:10 7.5 °C 4.8 °C 1020.5 hPa Calm     83% 0 mm
06:14 7.7 °C 5 °C 1020.5 hPa Calm     83% 0 mm
06:20 7.8 °C 5.1 °C 1020.5 hPa Calm     83% 0 mm
06:25 7.8 °C 5.1 °C 1020.5 hPa Calm     83% 0 mm
06:35 7.9 °C 5.1 °C 1020.9 hPa Calm     82% 0 mm
06:40 8.1 °C 5.2 °C 1020.9 hPa Calm     82% 0 mm
06:45 8.3 °C 5.6 °C 1020.9 hPa Calm     83% 0 mm
06:50 8.5 °C 5.8 °C 1020.9 hPa Calm     83% 0 mm
06:55 8.7 °C 6.1 °C 1021.2 hPa Calm     84% 0 mm
07:00 8.9 °C 6.3 °C 1021.2 hPa Calm     84% 0 mm
07:05 9.1 °C 6.5 °C 1021.2 hPa Calm     84% 0 mm
07:10 9.4 °C 6.8 °C 1021.2 hPa Calm     84% 0 mm
07:14 9.9 °C 6.9 °C 1021.2 hPa Calm     82% 0 mm
07:20 10.4 °C 7.2 °C 1021.2 hPa Calm     80% 0 mm
07:25 11.1 °C 7.4 °C 1021.6 hPa Calm     78% 0 mm
07:35 12.3 °C 8.2 °C 1021.2 hPa Calm   3.2 km/h 76% 0 mm
07:40 12.8 °C 7.8 °C 1021.2 hPa Calm   3.2 km/h 72% 0 mm
07:45 13.2 °C 8.1 °C 1021.2 hPa Calm   3.2 km/h 71% 0 mm
07:54 14.2 °C 8.4 °C 1021.2 hPa Calm     68% 0 mm
07:59 14.9 °C 8.8 °C 1021.6 hPa Calm     67% 0 mm
08:05 15.1 °C 8.8 °C 1021.2 hPa Calm     66% 0 mm
08:09 15.4 °C 9.1 °C 1021.2 hPa Calm     66% 0 mm
08:15 15.7 °C 8.2 °C 1021.2 hPa Calm   1.6 km/h 61% 0 mm
08:19 16.1 °C 9.3 °C 1021.2 hPa Calm   1.6 km/h 64% 0 mm
08:25 16.4 °C 7.8 °C 1021.2 hPa Calm     57% 0 mm
08:30 16.7 °C 8.6 °C 1021.2 hPa Calm     59% 0 mm
08:35 16.9 °C 9.3 °C 1020.9 hPa Calm   1.6 km/h 61% 0 mm
08:40 16.8 °C 8.5 °C 1020.9 hPa Calm   1.6 km/h 58% 0 mm
08:45 16.8 °C 9.2 °C 1020.9 hPa Calm   1.6 km/h 61% 0 mm
08:50 17.1 °C 9.5 °C 1020.9 hPa Calm   1.6 km/h 61% 0 mm
08:59 17.6 °C 9.8 °C 1020.9 hPa SSW 1.6 km/h 8 km/h 60% 0 mm
09:05 17.7 °C 8.5 °C 1020.9 hPa SW 3.2 km/h 8 km/h 55% 0 mm
09:10 17.6 °C 9.5 °C 1020.9 hPa WSW 1.6 km/h 8 km/h 59% 0 mm
09:15 17.8 °C 9.2 °C 1020.5 hPa Calm   8 km/h 57% 0 mm
09:20 18.3 °C 9.6 °C 1020.5 hPa WSW 3.2 km/h 6.4 km/h 57% 0 mm
09:24 18.4 °C 9.8 °C 1020.5 hPa SW 3.2 km/h 6.4 km/h 57% 0 mm
09:30 18.7 °C 8.9 °C 1020.5 hPa SW 3.2 km/h 9.7 km/h 53% 0 mm
09:35 18.7 °C 8.9 °C 1020.5 hPa SW 1.6 km/h 9.7 km/h 53% 0 mm
09:39 18.7 °C 8.1 °C 1020.5 hPa SW 6.4 km/h 11.3 km/h 50% 0 mm
09:44 18.8 °C 8.2 °C 1020.5 hPa SW 3.2 km/h 11.3 km/h 50% 0 mm
09:50 18.9 °C 8.2 °C 1020.5 hPa SW 1.6 km/h 11.3 km/h 50% 0 mm
09:55 19.4 °C 8.4 °C 1020.2 hPa SW 1.6 km/h 8 km/h 49% 0 mm
10:00 19.7 °C 8.3 °C 1020.2 hPa Calm   6.4 km/h 48% 0 mm
10:05 19.7 °C 8.1 °C 1020.2 hPa West 3.2 km/h 9.7 km/h 47% 0 mm
10:10 20 °C 8.1 °C 1020.2 hPa Calm   9.7 km/h 46% 0 mm
10:15 20.2 °C 7.9 °C 1020.2 hPa Calm   9.7 km/h 45% 0 mm
10:20 20.2 °C 6.8 °C 1020.2 hPa West 1.6 km/h 8 km/h 42% 0 mm
10:25 20.1 °C 7.4 °C 1020.2 hPa Calm   8 km/h 44% 0 mm
10:30 20.4 °C 8.7 °C 1020.5 hPa West 4.8 km/h 9.7 km/h 47% 0 mm
10:35 20.6 °C 8.6 °C 1020.5 hPa Calm   9.7 km/h 46% 0 mm
10:40 20.9 °C 7.5 °C 1020.5 hPa Calm   6.4 km/h 42% 0 mm
10:50 21.4 °C 6.5 °C 1020.5 hPa Calm   6.4 km/h 38% 0 mm
10:54 21.7 °C 8.6 °C 1020.5 hPa Calm   6.4 km/h 43% 0 mm
11:00 21.8 °C 7.7 °C 1020.5 hPa Calm   6.4 km/h 40% 0 mm
11:10 22.1 °C 6.3 °C 1020.5 hPa SW 1.6 km/h 8 km/h 36% 0 mm
11:15 22.2 °C 6.4 °C 1020.5 hPa Calm   8 km/h 36% 0 mm
11:19 22.3 °C 6.6 °C 1020.5 hPa Calm   1.6 km/h 36% 0 mm
11:25 22.3 °C 9.8 °C 1020.5 hPa Calm   8 km/h 45% 0 mm
11:30 22.6 °C 9.7 °C 1020.5 hPa East 1.6 km/h 9.7 km/h 44% 0 mm
11:40 22.8 °C 10.9 °C 1020.5 hPa Calm   11.3 km/h 47% 0 mm
11:44 22.6 °C 8.3 °C 1020.5 hPa West 1.6 km/h 9.7 km/h 40% 0 mm
11:50 22.3 °C 9.4 °C 1020.5 hPa Calm   6.4 km/h 44% 0 mm
11:54 22.6 °C 10.1 °C 1020.5 hPa Calm   1.6 km/h 45% 0 mm
12:00 22.9 °C 8.6 °C 1020.2 hPa Calm   1.6 km/h 40% 0 mm
12:05 22.9 °C 10 °C 1020.2 hPa WSW 1.6 km/h 6.4 km/h 44% 0 mm
12:10 22.8 °C 10.3 °C 1020.2 hPa West 4.8 km/h 9.7 km/h 45% 0 mm
12:14 22.9 °C 10 °C 1020.2 hPa Calm   9.7 km/h 44% 0 mm
12:20 23.1 °C 9.5 °C 1020.2 hPa West 3.2 km/h 11.3 km/h 42% 0 mm
12:24 23.1 °C 9.1 °C 1020.2 hPa West 8 km/h 11.3 km/h 41% 0 mm
12:30 23.2 °C 10.9 °C 1020.2 hPa WNW 4.8 km/h 12.9 km/h 46% 0 mm
12:35 23.4 °C 10.5 °C 1020.2 hPa WNW 1.6 km/h 12.9 km/h 44% 0 mm
12:44 23.8 °C 11.2 °C 1020.2 hPa NNE 1.6 km/h 8 km/h 45% 0 mm
12:50 24.1 °C 11.4 °C 1019.9 hPa Calm   8 km/h 45% 0 mm
12:55 23.9 °C 9.6 °C 1019.9 hPa WNW 4.8 km/h 12.9 km/h 40% 0 mm
13:00 23.7 °C 10.8 °C 1019.9 hPa NW 1.6 km/h 12.9 km/h 44% 0 mm
13:05 23.9 °C 9.6 °C 1019.9 hPa NW 4.8 km/h 11.3 km/h 40% 0 mm
13:10 23.9 °C 9.9 °C 1019.9 hPa NW 3.2 km/h 11.3 km/h 41% 0 mm
13:15 24 °C 11.7 °C 1019.9 hPa Calm   9.7 km/h 46% 0 mm
13:19 24.5 °C 12.1 °C 1020.2 hPa Calm   1.6 km/h 46% 0 mm
13:25 24.9 °C 9.2 °C 1019.9 hPa NW 4.8 km/h 9.7 km/h 37% 0 mm
13:30 24.7 °C 8.2 °C 1020.2 hPa WNW 1.6 km/h 9.7 km/h 35% 0 mm
13:34 24.7 °C 9 °C 1019.9 hPa Calm   8 km/h 37% 0 mm
13:40 24.9 °C 10.4 °C 1019.9 hPa Calm   8 km/h 40% 0 mm
13:50 24.9 °C 10 °C 1019.5 hPa Calm   1.6 km/h 39% 0 mm
13:59 24.9 °C 7.9 °C 1019.2 hPa Calm   11.3 km/h 34% 0 mm
14:05 25.1 °C 9.8 °C 1019.2 hPa Calm   1.6 km/h 38% 0 mm
14:10 25.2 °C 9.8 °C 1019.2 hPa West 3.2 km/h 8 km/h 38% 0 mm
14:15 25.3 °C 7.4 °C 1018.8 hPa SW 3.2 km/h 8 km/h 32% 0 mm
14:20 25.3 °C 8.3 °C 1018.8 hPa Calm   8 km/h 34% 0 mm
14:29 25.4 °C 8.4 °C 1018.8 hPa Calm   9.7 km/h 34% 0 mm
14:34 25.4 °C 7.6 °C 1018.8 hPa Calm   8 km/h 32% 0 mm
14:40 25.3 °C 11.1 °C 1018.8 hPa Calm   4.8 km/h 41% 0 mm
14:44 25.4 °C 9.3 °C 1018.5 hPa Calm   6.4 km/h 36% 0 mm
14:50 25.3 °C 9.2 °C 1018.5 hPa Calm   6.4 km/h 36% 0 mm
14:55 25.6 °C 9.4 °C 1018.5 hPa NNE 1.6 km/h 8 km/h 36% 0 mm
14:59 26.1 °C 9 °C 1018.8 hPa NW 3.2 km/h 8 km/h 34% 0 mm
15:05 26.3 °C 10.5 °C 1018.5 hPa Calm   8 km/h 37% 0 mm
15:10 26.5 °C 10.7 °C 1018.5 hPa Calm   3.2 km/h 37% 0 mm
15:15 26.4 °C 11 °C 1018.5 hPa Calm   3.2 km/h 38% 0 mm
15:19 26.5 °C 9.4 °C 1018.5 hPa Calm   1.6 km/h 34% 0 mm
15:25 26.6 °C 10.7 °C 1018.5 hPa Calm   1.6 km/h 37% 0 mm
15:30 26.5 °C 9.4 °C 1018.5 hPa West 1.6 km/h 8 km/h 34% 0 mm
15:35 26.4 °C 9.3 °C 1018.8 hPa NW 3.2 km/h 9.7 km/h 34% 0 mm
15:40 26.1 °C 8.6 °C 1018.5 hPa Calm   11.3 km/h 33% 0 mm
15:45 26 °C 8.5 °C 1018.5 hPa Calm   11.3 km/h 33% 0 mm
15:50 26.1 °C 9.4 °C 1018.5 hPa West 4.8 km/h 9.7 km/h 35% 0 mm
15:54 26.2 °C 10 °C 1018.5 hPa Calm   9.7 km/h 36% 0 mm
15:59 26.3 °C 11.2 °C 1018.5 hPa WNW 1.6 km/h 12.9 km/h 39% 0 mm
16:05 26.2 °C 9.6 °C 1018.5 hPa Calm   12.9 km/h 35% 0 mm
16:10 26.5 °C 10.2 °C 1018.5 hPa Calm   8 km/h 36% 0 mm
16:15 26.7 °C 9.5 °C 1018.5 hPa Calm   14.5 km/h 34% 0 mm
16:20 26.8 °C 12.1 °C 1018.5 hPa Calm   14.5 km/h 40% 0 mm
16:25 26.8 °C 10.1 °C 1018.5 hPa NW 1.6 km/h 9.7 km/h 35% 0 mm
16:30 26.5 °C 9.8 °C 1018.5 hPa Calm   9.7 km/h 35% 0 mm
16:34 26.5 °C 10.2 °C 1018.5 hPa WNW 1.6 km/h 8 km/h 36% 0 mm
16:40 26.6 °C 11.6 °C 1018.5 hPa Calm   8 km/h 39% 0 mm
16:44 26.6 °C 10.7 °C 1018.5 hPa NE 1.6 km/h 6.4 km/h 37% 0 mm
16:50 26.9 °C 12.2 °C 1018.5 hPa Calm   6.4 km/h 40% 0 mm
16:54 27.2 °C 9.5 °C 1018.2 hPa Calm   3.2 km/h 33% 0 mm
16:59 26.9 °C 10.2 °C 1018.2 hPa Calm   3.2 km/h 35% 0 mm
17:05 26.7 °C 10.8 °C 1018.2 hPa Calm   1.6 km/h 37% 0 mm
17:09 26.8 °C 10.5 °C 1018.2 hPa Calm   1.6 km/h 36% 0 mm
17:15 27 °C 10.3 °C 1018.2 hPa North 1.6 km/h 8 km/h 35% 0 mm
17:19 27.1 °C 9 °C 1018.2 hPa Calm   8 km/h 32% 0 mm
17:25 27.1 °C 11.2 °C 1018.2 hPa Calm   1.6 km/h 37% 0 mm
17:30 26.9 °C 10.6 °C 1018.2 hPa Calm   4.8 km/h 36% 0 mm
17:40 26.6 °C 10.3 °C 1018.2 hPa Calm   6.4 km/h 36% 0 mm
17:50 26.3 °C 9.6 °C 1018.2 hPa Calm   9.7 km/h 35% 0 mm
17:59 26.2 °C 9.6 °C 1018.2 hPa Calm   3.2 km/h 35% 0 mm
18:05 26.2 °C 10.3 °C 1018.2 hPa Calm   3.2 km/h 37% 0 mm
18:10 26.2 °C 9.6 °C 1018.2 hPa Calm   1.6 km/h 35% 0 mm
18:14 26.1 °C 9 °C 1018.2 hPa Calm   1.6 km/h 34% 0 mm
18:20 26 °C 12.1 °C 1018.2 hPa Calm   1.6 km/h 42% 0 mm
18:25 26 °C 11.4 °C 1018.2 hPa Calm   1.6 km/h 40% 0 mm
18:34 25.9 °C 12.4 °C 1018.2 hPa Calm   1.6 km/h 43% 0 mm
18:40 25.9 °C 12.4 °C 1018.2 hPa Calm   1.6 km/h 43% 0 mm
18:49 26 °C 12.1 °C 1018.2 hPa Calm   1.6 km/h 42% 0 mm
18:55 25.6 °C 10.3 °C 1018.2 hPa Calm   1.6 km/h 38% 0 mm
18:59 25.3 °C 12.5 °C 1018.2 hPa Calm     45% 0 mm
19:05 24.6 °C 11.8 °C 1018.2 hPa Calm     45% 0 mm
19:09 24.2 °C 12.5 °C 1018.2 hPa Calm     48% 0 mm
19:15 23.6 °C 11.9 °C 1018.2 hPa Calm     48% 0 mm
19:19 23.1 °C 12.9 °C 1018.2 hPa Calm     53% 0 mm
19:25 22.4 °C 12.7 °C 1018.2 hPa Calm     54% 0 mm
19:29 21.9 °C 13 °C 1018.5 hPa Calm     57% 0 mm
19:35 21.4 °C 11.5 °C 1018.5 hPa Calm     53% 0 mm
19:40 21.2 °C 10.7 °C 1018.2 hPa Calm     51% 0 mm
19:45 20.9 °C 11.6 °C 1018.5 hPa Calm     55% 0 mm
19:50 20.6 °C 10.9 °C 1018.5 hPa Calm     54% 0 mm
19:59 19.3 °C 11.1 °C 1018.5 hPa Calm     59% 0 mm
20:05 18.8 °C 11.3 °C 1018.5 hPa Calm     62% 0 mm
20:09 18.2 °C 10.6 °C 1018.5 hPa Calm     61% 0 mm
20:14 17.7 °C 10.3 °C 1018.5 hPa Calm     62% 0 mm
20:19 17.4 °C 10.1 °C 1018.5 hPa Calm     62% 0 mm
20:25 17.4 °C 10.1 °C 1018.5 hPa Calm     62% 0 mm
20:30 17.4 °C 10.3 °C 1018.5 hPa Calm     63% 0 mm
20:39 16.6 °C 10.4 °C 1018.8 hPa Calm     67% 0 mm
20:44 16.2 °C 9.8 °C 1018.8 hPa Calm     66% 0 mm
20:49 16.2 °C 9.6 °C 1018.8 hPa Calm     65% 0 mm
20:55 16.3 °C 9.4 °C 1018.8 hPa Calm     64% 0 mm
20:59 16.1 °C 9.8 °C 1018.8 hPa Calm     66% 0 mm
21:04 15.8 °C 9.9 °C 1018.8 hPa Calm     68% 0 mm
21:09 15.4 °C 9.7 °C 1018.8 hPa Calm     69% 0 mm
21:14 15.3 °C 9.2 °C 1019.2 hPa Calm     67% 0 mm
21:19 15.3 °C 9.4 °C 1019.2 hPa Calm     68% 0 mm
21:24 15.3 °C 9.6 °C 1019.2 hPa Calm     69% 0 mm
21:29 15.1 °C 9.3 °C 1019.2 hPa Calm     68% 0 mm
21:35 15 °C 9.4 °C 1019.2 hPa Calm     69% 0 mm
21:39 15 °C 9.6 °C 1019.2 hPa Calm     70% 0 mm
21:44 14.8 °C 9.6 °C 1019.5 hPa Calm     71% 0 mm
21:49 14.8 °C 9.4 °C 1019.5 hPa Calm     70% 0 mm
21:54 14.7 °C 9.5 °C 1019.5 hPa Calm     71% 0 mm
21:59 14.6 °C 9.6 °C 1019.5 hPa Calm     72% 0 mm
22:05 14.4 °C 9.4 °C 1019.5 hPa Calm     72% 0 mm
22:09 14.3 °C 9.3 °C 1019.5 hPa Calm     72% 0 mm
22:14 14.3 °C 9.5 °C 1019.9 hPa Calm     73% 0 mm
22:20 14.2 °C 9.4 °C 1019.9 hPa Calm     73% 0 mm
22:25 14.2 °C 9.6 °C 1019.9 hPa Calm     74% 0 mm
22:29 14.1 °C 9.2 °C 1019.9 hPa Calm     72% 0 mm
22:34 14.1 °C 9.1 °C 1019.9 hPa Calm     72% 0 mm
22:40 14.2 °C 9.2 °C 1019.9 hPa Calm     72% 0 mm
22:44 14.2 °C 9.4 °C 1020.2 hPa Calm     73% 0 mm
22:49 14.2 °C 9.2 °C 1019.9 hPa Calm     72% 0 mm
22:54 14.4 °C 9.4 °C 1019.9 hPa Calm     72% 0 mm
22:59 14.3 °C 9.3 °C 1019.9 hPa Calm     72% 0 mm
23:04 14.2 °C 9.2 °C 1020.2 hPa Calm     72% 0 mm
23:09 14.2 °C 9.4 °C 1020.2 hPa Calm     73% 0 mm
23:14 13.9 °C 9.3 °C 1020.2 hPa Calm     74% 0 mm
23:19 13.7 °C 9.4 °C 1020.2 hPa Calm     75% 0 mm
23:24 13.5 °C 9.2 °C 1020.2 hPa Calm     75% 0 mm
23:29 13.4 °C 9.2 °C 1020.2 hPa Calm     76% 0 mm
23:35 13.3 °C 9 °C 1020.2 hPa Calm     75% 0 mm
23:39 13.3 °C 8.9 °C 1020.2 hPa Calm     75% 0 mm
23:45 13.3 °C 9 °C 1020.2 hPa Calm     75% 0 mm
23:49 13.3 °C 9 °C 1020.2 hPa Calm     75% 0 mm
23:54 13.3 °C 8.9 °C 1020.2 hPa Calm     75% 0 mm
23:59 13.2 °C 8.9 °C 1020.2 hPa Calm     75% 0 mm
Westford Weather
Compliments of Weather Underground

 
 
Current Radar Loop:

Copyright © WestfordWeather.net 2007-2014. All rights reserved.